sensor_id;sensor_type;location;lat;lon;timestamp;temperature;humidity
51841;DHT22;37888;53.246;6.658;2024-02-23T00:02:17;5.10;99.90
51841;DHT22;37888;53.246;6.658;2024-02-23T00:04:43;5.40;99.90
51841;DHT22;37888;53.246;6.658;2024-02-23T00:07:10;5.20;99.90
51841;DHT22;37888;53.246;6.658;2024-02-23T00:09:37;5.00;99.90
51841;DHT22;37888;53.246;6.658;2024-02-23T00:12:02;5.40;99.90
51841;DHT22;37888;53.246;6.658;2024-02-23T00:14:29;5.20;99.90
51841;DHT22;37888;53.246;6.658;2024-02-23T00:16:56;5.20;99.90
51841;DHT22;37888;53.246;6.658;2024-02-23T00:19:22;5.10;99.90
51841;DHT22;37888;53.246;6.658;2024-02-23T00:21:49;5.00;99.90
51841;DHT22;37888;53.246;6.658;2024-02-23T00:24:16;5.20;99.90
51841;DHT22;37888;53.246;6.658;2024-02-23T00:26:43;5.20;99.90
51841;DHT22;37888;53.246;6.658;2024-02-23T00:29:08;5.10;99.90
51841;DHT22;37888;53.246;6.658;2024-02-23T00:31:34;4.80;99.90
51841;DHT22;37888;53.246;6.658;2024-02-23T00:34:04;4.90;99.90
51841;DHT22;37888;53.246;6.658;2024-02-23T00:36:30;5.40;99.90
51841;DHT22;37888;53.246;6.658;2024-02-23T00:38:56;4.90;99.90
51841;DHT22;37888;53.246;6.658;2024-02-23T00:41:22;5.60;99.90
51841;DHT22;37888;53.246;6.658;2024-02-23T00:43:47;5.20;99.90
51841;DHT22;37888;53.246;6.658;2024-02-23T00:46:15;5.00;99.90
51841;DHT22;37888;53.246;6.658;2024-02-23T00:48:41;5.30;99.90
51841;DHT22;37888;53.246;6.658;2024-02-23T00:51:06;5.00;99.90
51841;DHT22;37888;53.246;6.658;2024-02-23T00:53:32;5.30;99.90
51841;DHT22;37888;53.246;6.658;2024-02-23T00:55:58;5.20;99.90
51841;DHT22;37888;53.246;6.658;2024-02-23T00:58:24;5.50;99.90
51841;DHT22;37888;53.246;6.658;2024-02-23T01:00:49;5.10;99.90
51841;DHT22;37888;53.246;6.658;2024-02-23T01:03:15;5.30;99.90
51841;DHT22;37888;53.246;6.658;2024-02-23T01:05:40;5.30;99.90
51841;DHT22;37888;53.246;6.658;2024-02-23T01:08:08;5.10;99.90
51841;DHT22;37888;53.246;6.658;2024-02-23T01:10:35;5.00;99.90
51841;DHT22;37888;53.246;6.658;2024-02-23T01:13:01;5.40;99.90
51841;DHT22;37888;53.246;6.658;2024-02-23T01:15:26;4.80;99.90
51841;DHT22;37888;53.246;6.658;2024-02-23T01:17:54;4.90;99.90
51841;DHT22;37888;53.246;6.658;2024-02-23T01:20:22;5.10;99.90
51841;DHT22;37888;53.246;6.658;2024-02-23T01:22:48;5.10;99.90
51841;DHT22;37888;53.246;6.658;2024-02-23T01:25:14;4.90;99.90
51841;DHT22;37888;53.246;6.658;2024-02-23T01:27:41;4.80;99.90
51841;DHT22;37888;53.246;6.658;2024-02-23T01:30:07;5.00;99.90
51841;DHT22;37888;53.246;6.658;2024-02-23T01:32:32;4.70;99.90
51841;DHT22;37888;53.246;6.658;2024-02-23T01:34:59;5.00;99.90
51841;DHT22;37888;53.246;6.658;2024-02-23T01:37:26;5.20;99.90
51841;DHT22;37888;53.246;6.658;2024-02-23T01:39:51;5.00;99.90
51841;DHT22;37888;53.246;6.658;2024-02-23T01:42:18;4.90;99.90
51841;DHT22;37888;53.246;6.658;2024-02-23T01:44:44;5.10;99.90
51841;DHT22;37888;53.246;6.658;2024-02-23T07:55:39;6.10;99.90
51841;DHT22;37888;53.246;6.658;2024-02-23T07:58:04;6.10;99.90
51841;DHT22;37888;53.246;6.658;2024-02-23T08:00:30;6.00;99.90
51841;DHT22;37888;53.246;6.658;2024-02-23T08:02:56;6.00;99.90
51841;DHT22;37888;53.246;6.658;2024-02-23T08:05:25;6.80;99.90
51841;DHT22;37888;53.246;6.658;2024-02-23T08:07:51;6.10;99.90
51841;DHT22;37888;53.246;6.658;2024-02-23T08:10:16;6.10;99.90
51841;DHT22;37888;53.246;6.658;2024-02-23T08:12:42;6.20;99.90
51841;DHT22;37888;53.246;6.658;2024-02-23T08:15:08;6.10;99.90
51841;DHT22;37888;53.246;6.658;2024-02-23T08:17:34;6.10;99.90
51841;DHT22;37888;53.246;6.658;2024-02-23T08:20:00;6.00;99.90
51841;DHT22;37888;53.246;6.658;2024-02-23T08:22:26;6.00;99.90
51841;DHT22;37888;53.246;6.658;2024-02-23T08:24:51;6.00;99.90
51841;DHT22;37888;53.246;6.658;2024-02-23T08:27:17;5.90;99.90
51841;DHT22;37888;53.246;6.658;2024-02-23T08:29:43;5.90;99.90
51841;DHT22;37888;53.246;6.658;2024-02-23T08:32:09;5.90;99.90
51841;DHT22;37888;53.246;6.658;2024-02-23T08:34:35;5.80;99.90
51841;DHT22;37888;53.246;6.658;2024-02-23T08:37:00;5.90;99.90
51841;DHT22;37888;53.246;6.658;2024-02-23T08:39:27;5.80;99.90
51841;DHT22;37888;53.246;6.658;2024-02-23T08:41:52;5.80;99.90
51841;DHT22;37888;53.246;6.658;2024-02-23T08:44:18;5.90;99.90
51841;DHT22;37888;53.246;6.658;2024-02-23T08:46:44;5.80;99.90
51841;DHT22;37888;53.246;6.658;2024-02-23T08:49:09;5.90;99.90
51841;DHT22;37888;53.246;6.658;2024-02-23T08:51:35;5.90;99.90
51841;DHT22;37888;53.246;6.658;2024-02-23T08:54:01;5.90;99.90
51841;DHT22;37888;53.246;6.658;2024-02-23T08:56:30;5.90;99.90
51841;DHT22;37888;53.246;6.658;2024-02-23T08:58:58;5.90;99.90
51841;DHT22;37888;53.246;6.658;2024-02-23T09:01:23;5.90;99.90
51841;DHT22;37888;53.246;6.658;2024-02-23T09:03:49;6.00;99.90
51841;DHT22;37888;53.246;6.658;2024-02-23T09:06:16;5.90;99.90
51841;DHT22;37888;53.246;6.658;2024-02-23T09:08:42;6.00;99.90
51841;DHT22;37888;53.246;6.658;2024-02-23T09:11:08;6.00;99.90
51841;DHT22;37888;53.246;6.658;2024-02-23T09:13:36;6.00;99.90
51841;DHT22;37888;53.246;6.658;2024-02-23T09:16:02;6.10;99.90
51841;DHT22;37888;53.246;6.658;2024-02-23T09:18:28;6.10;99.90
51841;DHT22;37888;53.246;6.658;2024-02-23T09:20:53;6.20;99.90
51841;DHT22;37888;53.246;6.658;2024-02-23T09:23:19;6.20;99.90
51841;DHT22;37888;53.246;6.658;2024-02-23T09:25:45;6.30;99.90
51841;DHT22;37888;53.246;6.658;2024-02-23T09:28:11;6.30;99.90
51841;DHT22;37888;53.246;6.658;2024-02-23T09:30:37;6.40;99.90
51841;DHT22;37888;53.246;6.658;2024-02-23T09:33:03;6.40;99.90
51841;DHT22;37888;53.246;6.658;2024-02-23T09:35:28;6.40;99.90
51841;DHT22;37888;53.246;6.658;2024-02-23T09:37:55;6.40;99.90
51841;DHT22;37888;53.246;6.658;2024-02-23T09:40:21;6.50;99.90
51841;DHT22;37888;53.246;6.658;2024-02-23T09:42:48;6.60;99.90
51841;DHT22;37888;53.246;6.658;2024-02-23T09:45:18;6.70;99.90
51841;DHT22;37888;53.246;6.658;2024-02-23T09:47:45;6.70;99.90
51841;DHT22;37888;53.246;6.658;2024-02-23T09:50:12;6.70;99.90
51841;DHT22;37888;53.246;6.658;2024-02-23T09:52:38;6.70;99.90
51841;DHT22;37888;53.246;6.658;2024-02-23T09:55:04;6.70;99.90
51841;DHT22;37888;53.246;6.658;2024-02-23T09:57:30;6.60;99.90
51841;DHT22;37888;53.246;6.658;2024-02-23T09:59:57;6.70;99.90
51841;DHT22;37888;53.246;6.658;2024-02-23T10:02:23;6.70;99.90
51841;DHT22;37888;53.246;6.658;2024-02-23T10:04:49;6.70;99.90
51841;DHT22;37888;53.246;6.658;2024-02-23T10:07:16;6.80;99.90
51841;DHT22;37888;53.246;6.658;2024-02-23T10:09:43;6.90;99.90
51841;DHT22;37888;53.246;6.658;2024-02-23T10:12:10;7.30;99.90
51841;DHT22;37888;53.246;6.658;2024-02-23T10:14:35;7.00;99.90
51841;DHT22;37888;53.246;6.658;2024-02-23T10:17:01;7.20;99.90
51841;DHT22;37888;53.246;6.658;2024-02-23T10:19:27;7.20;99.90
51841;DHT22;37888;53.246;6.658;2024-02-23T10:21:55;7.30;99.90
51841;DHT22;37888;53.246;6.658;2024-02-23T10:24:20;7.50;99.90
51841;DHT22;37888;53.246;6.658;2024-02-23T10:26:47;7.60;99.90
51841;DHT22;37888;53.246;6.658;2024-02-23T10:29:13;7.80;99.90
51841;DHT22;37888;53.246;6.658;2024-02-23T10:48:51;7.40;99.90
51841;DHT22;37888;53.246;6.658;2024-02-23T10:51:18;7.50;99.90
51841;DHT22;37888;53.246;6.658;2024-02-23T10:53:44;7.40;99.90
51841;DHT22;37888;53.246;6.658;2024-02-23T10:56:11;7.30;99.90
51841;DHT22;37888;53.246;6.658;2024-02-23T10:58:38;7.30;99.90
51841;DHT22;37888;53.246;6.658;2024-02-23T11:01:05;7.30;99.90
51841;DHT22;37888;53.246;6.658;2024-02-23T11:03:32;7.30;99.90
51841;DHT22;37888;53.246;6.658;2024-02-23T11:06:01;7.30;99.90
51841;DHT22;37888;53.246;6.658;2024-02-23T11:08:28;7.30;99.90
51841;DHT22;37888;53.246;6.658;2024-02-23T11:10:53;7.30;99.90
51841;DHT22;37888;53.246;6.658;2024-02-23T11:13:35;7.30;99.90
51841;DHT22;37888;53.246;6.658;2024-02-23T11:16:02;7.30;99.90
51841;DHT22;37888;53.246;6.658;2024-02-23T11:18:28;7.30;99.90
51841;DHT22;37888;53.246;6.658;2024-02-23T11:20:54;7.30;99.90
51841;DHT22;37888;53.246;6.658;2024-02-23T11:23:22;7.30;99.90
51841;DHT22;37888;53.246;6.658;2024-02-23T11:28:29;7.20;99.90
51841;DHT22;37888;53.246;6.658;2024-02-23T11:30:54;7.20;99.90
51841;DHT22;37888;53.246;6.658;2024-02-23T11:33:27;7.20;99.90
51841;DHT22;37888;53.246;6.658;2024-02-23T11:35:53;7.20;99.90
51841;DHT22;37888;53.246;6.658;2024-02-23T11:38:20;7.00;99.90
51841;DHT22;37888;53.246;6.658;2024-02-23T11:40:47;7.00;99.90
51841;DHT22;37888;53.246;6.658;2024-02-23T11:43:13;6.80;99.90
51841;DHT22;37888;53.246;6.658;2024-02-23T11:45:40;6.80;99.90
51841;DHT22;37888;53.246;6.658;2024-02-23T11:48:06;6.70;99.90
51841;DHT22;37888;53.246;6.658;2024-02-23T11:50:31;6.60;99.90
51841;DHT22;37888;53.246;6.658;2024-02-23T11:52:57;6.70;99.90
51841;DHT22;37888;53.246;6.658;2024-02-23T11:55:23;6.70;99.90
51841;DHT22;37888;53.246;6.658;2024-02-23T11:57:48;6.70;99.90
51841;DHT22;37888;53.246;6.658;2024-02-23T12:00:14;6.70;99.90
51841;DHT22;37888;53.246;6.658;2024-02-23T12:02:40;6.70;99.90
51841;DHT22;37888;53.246;6.658;2024-02-23T12:05:06;6.60;99.90
51841;DHT22;37888;53.246;6.658;2024-02-23T12:07:32;6.70;99.90
51841;DHT22;37888;53.246;6.658;2024-02-23T12:09:58;6.60;99.90
51841;DHT22;37888;53.246;6.658;2024-02-23T12:12:25;6.60;99.90
51841;DHT22;37888;53.246;6.658;2024-02-23T12:14:50;6.60;99.90
51841;DHT22;37888;53.246;6.658;2024-02-23T12:17:16;6.60;99.90
51841;DHT22;37888;53.246;6.658;2024-02-23T12:19:42;6.60;99.90
51841;DHT22;37888;53.246;6.658;2024-02-23T12:22:09;6.70;99.90
51841;DHT22;37888;53.246;6.658;2024-02-23T12:24:35;6.70;99.90
51841;DHT22;37888;53.246;6.658;2024-02-23T12:27:01;6.70;99.90
51841;DHT22;37888;53.246;6.658;2024-02-23T12:29:26;6.80;99.90
51841;DHT22;37888;53.246;6.658;2024-02-23T12:32:05;6.80;99.90
51841;DHT22;37888;53.246;6.658;2024-02-23T12:34:31;6.90;99.90
51841;DHT22;37888;53.246;6.658;2024-02-23T12:36:56;6.90;99.90
51841;DHT22;37888;53.246;6.658;2024-02-23T12:39:22;6.90;99.90
51841;DHT22;37888;53.246;6.658;2024-02-23T12:41:48;7.00;99.90
51841;DHT22;37888;53.246;6.658;2024-02-23T12:44:13;7.00;99.90
51841;DHT22;37888;53.246;6.658;2024-02-23T12:46:40;7.00;99.90
51841;DHT22;37888;53.246;6.658;2024-02-23T12:49:05;7.00;99.90
51841;DHT22;37888;53.246;6.658;2024-02-23T12:51:31;7.00;99.90
51841;DHT22;37888;53.246;6.658;2024-02-23T12:53:57;7.10;99.90
51841;DHT22;37888;53.246;6.658;2024-02-23T12:56:22;7.10;99.90
51841;DHT22;37888;53.246;6.658;2024-02-23T12:58:48;7.10;99.90
51841;DHT22;37888;53.246;6.658;2024-02-23T13:01:13;7.10;99.90
51841;DHT22;37888;53.246;6.658;2024-02-23T13:03:41;7.20;99.90
51841;DHT22;37888;53.246;6.658;2024-02-23T13:06:08;7.20;99.90
51841;DHT22;37888;53.246;6.658;2024-02-23T13:08:33;7.20;99.90
51841;DHT22;37888;53.246;6.658;2024-02-23T13:11:00;7.30;99.90
51841;DHT22;37888;53.246;6.658;2024-02-23T13:13:25;7.40;99.90
51841;DHT22;37888;53.246;6.658;2024-02-23T13:15:52;7.50;99.90
51841;DHT22;37888;53.246;6.658;2024-02-23T13:18:18;7.60;99.90
51841;DHT22;37888;53.246;6.658;2024-02-23T13:20:44;7.70;99.90
51841;DHT22;37888;53.246;6.658;2024-02-23T13:23:11;7.70;99.90
51841;DHT22;37888;53.246;6.658;2024-02-23T13:25:40;7.70;99.90
51841;DHT22;37888;53.246;6.658;2024-02-23T13:28:07;7.70;99.90
51841;DHT22;37888;53.246;6.658;2024-02-23T13:30:32;7.70;99.90
51841;DHT22;37888;53.246;6.658;2024-02-23T13:32:59;7.70;99.90
51841;DHT22;37888;53.246;6.658;2024-02-23T13:35:26;7.70;99.90
51841;DHT22;37888;53.246;6.658;2024-02-23T13:37:52;7.70;99.90
51841;DHT22;37888;53.246;6.658;2024-02-23T13:40:18;7.70;99.90
51841;DHT22;37888;53.246;6.658;2024-02-23T13:42:44;8.10;99.90
51841;DHT22;37888;53.246;6.658;2024-02-23T13:45:16;8.00;99.90
51841;DHT22;37888;53.246;6.658;2024-02-23T13:47:42;8.00;99.90
51841;DHT22;37888;53.246;6.658;2024-02-23T13:50:09;8.00;99.90
51841;DHT22;37888;53.246;6.658;2024-02-23T13:52:36;7.90;99.90
51841;DHT22;37888;53.246;6.658;2024-02-23T13:55:01;7.90;99.90
51841;DHT22;37888;53.246;6.658;2024-02-23T13:57:27;7.90;99.90
51841;DHT22;37888;53.246;6.658;2024-02-23T13:59:53;7.90;99.90
51841;DHT22;37888;53.246;6.658;2024-02-23T14:02:25;7.90;99.90
51841;DHT22;37888;53.246;6.658;2024-02-23T14:04:50;7.90;99.90
51841;DHT22;37888;53.246;6.658;2024-02-23T14:07:16;7.90;99.90
51841;DHT22;37888;53.246;6.658;2024-02-23T14:09:45;7.90;99.90
51841;DHT22;37888;53.246;6.658;2024-02-23T14:12:11;8.00;99.90
51841;DHT22;37888;53.246;6.658;2024-02-23T14:14:38;8.00;99.90
51841;DHT22;37888;53.246;6.658;2024-02-23T14:17:03;8.00;99.90
51841;DHT22;37888;53.246;6.658;2024-02-23T14:19:29;8.00;99.90
51841;DHT22;37888;53.246;6.658;2024-02-23T14:21:55;8.00;99.90
51841;DHT22;37888;53.246;6.658;2024-02-23T14:24:21;8.00;99.90
51841;DHT22;37888;53.246;6.658;2024-02-23T14:26:47;8.20;99.90
51841;DHT22;37888;53.246;6.658;2024-02-23T14:29:13;8.30;99.90
51841;DHT22;37888;53.246;6.658;2024-02-23T14:31:38;8.30;99.90
51841;DHT22;37888;53.246;6.658;2024-02-23T14:34:04;8.30;99.90
51841;DHT22;37888;53.246;6.658;2024-02-23T14:36:31;8.40;99.90
51841;DHT22;37888;53.246;6.658;2024-02-23T14:39:00;8.30;99.90
51841;DHT22;37888;53.246;6.658;2024-02-23T14:41:26;8.30;99.90
51841;DHT22;37888;53.246;6.658;2024-02-23T14:43:52;8.40;99.90
51841;DHT22;37888;53.246;6.658;2024-02-23T14:46:19;8.40;99.90
51841;DHT22;37888;53.246;6.658;2024-02-23T14:48:45;8.40;99.90
51841;DHT22;37888;53.246;6.658;2024-02-23T14:51:16;8.40;99.90
51841;DHT22;37888;53.246;6.658;2024-02-23T14:53:42;8.30;99.90
51841;DHT22;37888;53.246;6.658;2024-02-23T14:56:08;8.10;99.90
51841;DHT22;37888;53.246;6.658;2024-02-23T14:58:33;8.00;99.90
51841;DHT22;37888;53.246;6.658;2024-02-23T15:00:59;7.90;99.90
51841;DHT22;37888;53.246;6.658;2024-02-23T15:03:25;7.70;99.90
51841;DHT22;37888;53.246;6.658;2024-02-23T15:05:51;7.60;99.90
51841;DHT22;37888;53.246;6.658;2024-02-23T15:08:16;7.50;99.90
51841;DHT22;37888;53.246;6.658;2024-02-23T15:10:42;7.40;99.90
51841;DHT22;37888;53.246;6.658;2024-02-23T15:13:08;7.20;99.90
51841;DHT22;37888;53.246;6.658;2024-02-23T15:15:33;7.00;99.90
51841;DHT22;37888;53.246;6.658;2024-02-23T15:18:01;6.80;99.90
51841;DHT22;37888;53.246;6.658;2024-02-23T15:20:27;6.70;99.90
51841;DHT22;37888;53.246;6.658;2024-02-23T15:22:52;6.60;99.90
51841;DHT22;37888;53.246;6.658;2024-02-23T15:25:19;6.60;99.90
51841;DHT22;37888;53.246;6.658;2024-02-23T15:27:45;6.60;99.90
51841;DHT22;37888;53.246;6.658;2024-02-23T15:30:11;6.60;99.90
51841;DHT22;37888;53.246;6.658;2024-02-23T15:32:37;6.60;99.90
51841;DHT22;37888;53.246;6.658;2024-02-23T15:35:03;6.60;99.90
51841;DHT22;37888;53.246;6.658;2024-02-23T15:37:30;6.50;99.90
51841;DHT22;37888;53.246;6.658;2024-02-23T15:39:56;6.50;99.90
51841;DHT22;37888;53.246;6.658;2024-02-23T15:42:21;6.50;99.90
51841;DHT22;37888;53.246;6.658;2024-02-23T15:44:47;6.50;99.90
51841;DHT22;37888;53.246;6.658;2024-02-23T15:47:13;6.40;99.90
51841;DHT22;37888;53.246;6.658;2024-02-23T15:49:38;6.40;99.90
51841;DHT22;37888;53.246;6.658;2024-02-23T15:52:05;6.40;99.90
51841;DHT22;37888;53.246;6.658;2024-02-23T15:54:31;6.30;99.90
51841;DHT22;37888;53.246;6.658;2024-02-23T15:56:59;6.30;99.90
51841;DHT22;37888;53.246;6.658;2024-02-23T15:59:25;6.30;99.90
51841;DHT22;37888;53.246;6.658;2024-02-23T16:01:51;6.30;99.90
51841;DHT22;37888;53.246;6.658;2024-02-23T16:04:18;6.30;99.90
51841;DHT22;37888;53.246;6.658;2024-02-23T16:06:43;6.40;99.90
51841;DHT22;37888;53.246;6.658;2024-02-23T16:09:09;6.40;99.90
51841;DHT22;37888;53.246;6.658;2024-02-23T16:11:35;6.40;99.90
51841;DHT22;37888;53.246;6.658;2024-02-23T16:14:02;6.40;99.90
51841;DHT22;37888;53.246;6.658;2024-02-23T16:16:29;6.40;99.90
51841;DHT22;37888;53.246;6.658;2024-02-23T16:18:55;6.40;99.90
51841;DHT22;37888;53.246;6.658;2024-02-23T16:21:20;6.40;99.90
51841;DHT22;37888;53.246;6.658;2024-02-23T16:23:46;6.40;99.90
51841;DHT22;37888;53.246;6.658;2024-02-23T16:26:12;6.40;99.90
51841;DHT22;37888;53.246;6.658;2024-02-23T16:28:38;6.40;99.90
51841;DHT22;37888;53.246;6.658;2024-02-23T16:31:03;6.40;99.90
51841;DHT22;37888;53.246;6.658;2024-02-23T16:33:29;6.30;99.90
51841;DHT22;37888;53.246;6.658;2024-02-23T16:35:54;6.40;99.90
51841;DHT22;37888;53.246;6.658;2024-02-23T16:38:22;6.40;99.90
51841;DHT22;37888;53.246;6.658;2024-02-23T16:40:48;6.30;99.90
51841;DHT22;37888;53.246;6.658;2024-02-23T16:43:14;6.40;99.90
51841;DHT22;37888;53.246;6.658;2024-02-23T16:45:39;6.40;99.90
51841;DHT22;37888;53.246;6.658;2024-02-23T16:48:05;6.30;99.90
51841;DHT22;37888;53.246;6.658;2024-02-23T16:50:35;6.30;99.90
51841;DHT22;37888;53.246;6.658;2024-02-23T16:53:03;6.30;99.90
51841;DHT22;37888;53.246;6.658;2024-02-23T16:55:28;6.30;99.90
51841;DHT22;37888;53.246;6.658;2024-02-23T16:57:54;6.30;99.90
51841;DHT22;37888;53.246;6.658;2024-02-23T17:00:20;6.30;99.90
51841;DHT22;37888;53.246;6.658;2024-02-23T17:02:46;6.30;99.90
51841;DHT22;37888;53.246;6.658;2024-02-23T17:05:12;6.30;99.90
51841;DHT22;37888;53.246;6.658;2024-02-23T17:07:38;6.30;99.90
51841;DHT22;37888;53.246;6.658;2024-02-23T17:10:03;6.40;99.90
51841;DHT22;37888;53.246;6.658;2024-02-23T17:12:29;6.30;99.90
51841;DHT22;37888;53.246;6.658;2024-02-23T17:14:56;6.30;99.90
51841;DHT22;37888;53.246;6.658;2024-02-23T17:17:22;6.30;99.90
51841;DHT22;37888;53.246;6.658;2024-02-23T17:19:48;6.30;99.90
51841;DHT22;37888;53.246;6.658;2024-02-23T17:22:13;6.20;99.90
51841;DHT22;37888;53.246;6.658;2024-02-23T17:24:39;6.20;99.90
51841;DHT22;37888;53.246;6.658;2024-02-23T17:27:05;6.30;99.90
51841;DHT22;37888;53.246;6.658;2024-02-23T17:29:31;6.30;99.90
51841;DHT22;37888;53.246;6.658;2024-02-23T17:31:59;6.30;99.90
51841;DHT22;37888;53.246;6.658;2024-02-23T17:34:24;6.30;99.90
51841;DHT22;37888;53.246;6.658;2024-02-23T17:36:50;6.30;99.90
51841;DHT22;37888;53.246;6.658;2024-02-23T17:39:16;6.30;99.90
51841;DHT22;37888;53.246;6.658;2024-02-23T17:41:44;6.30;99.90
51841;DHT22;37888;53.246;6.658;2024-02-23T17:44:10;6.30;99.90
51841;DHT22;37888;53.246;6.658;2024-02-23T17:46:36;6.30;99.90
51841;DHT22;37888;53.246;6.658;2024-02-23T17:49:02;6.30;99.90
51841;DHT22;37888;53.246;6.658;2024-02-23T17:51:29;6.30;99.90
51841;DHT22;37888;53.246;6.658;2024-02-23T17:53:55;6.30;99.90
51841;DHT22;37888;53.246;6.658;2024-02-23T17:56:24;6.30;99.90
51841;DHT22;37888;53.246;6.658;2024-02-23T17:58:51;6.40;99.90
51841;DHT22;37888;53.246;6.658;2024-02-23T18:01:16;6.40;99.90
51841;DHT22;37888;53.246;6.658;2024-02-23T18:03:42;6.40;99.90
51841;DHT22;37888;53.246;6.658;2024-02-23T18:06:08;6.30;99.90
51841;DHT22;37888;53.246;6.658;2024-02-23T18:08:34;6.40;99.90
51841;DHT22;37888;53.246;6.658;2024-02-23T18:11:01;6.40;99.90
51841;DHT22;37888;53.246;6.658;2024-02-23T18:13:27;6.30;99.90
51841;DHT22;37888;53.246;6.658;2024-02-23T18:15:53;6.30;99.90
51841;DHT22;37888;53.246;6.658;2024-02-23T18:18:18;6.30;99.90
51841;DHT22;37888;53.246;6.658;2024-02-23T18:20:44;6.30;99.90
51841;DHT22;37888;53.246;6.658;2024-02-23T18:23:10;6.30;99.90
51841;DHT22;37888;53.246;6.658;2024-02-23T18:25:35;6.30;99.90
51841;DHT22;37888;53.246;6.658;2024-02-23T18:28:01;6.30;99.90
51841;DHT22;37888;53.246;6.658;2024-02-23T18:30:26;6.30;99.90
51841;DHT22;37888;53.246;6.658;2024-02-23T18:32:52;6.30;99.90
51841;DHT22;37888;53.246;6.658;2024-02-23T18:35:18;6.30;99.90
51841;DHT22;37888;53.246;6.658;2024-02-23T18:37:43;6.30;99.90
51841;DHT22;37888;53.246;6.658;2024-02-23T18:40:09;6.30;99.90
51841;DHT22;37888;53.246;6.658;2024-02-23T18:42:35;6.20;99.90
51841;DHT22;37888;53.246;6.658;2024-02-23T18:45:01;6.20;99.90
51841;DHT22;37888;53.246;6.658;2024-02-23T18:47:27;6.10;99.90
51841;DHT22;37888;53.246;6.658;2024-02-23T18:49:53;6.10;99.90
51841;DHT22;37888;53.246;6.658;2024-02-23T18:52:19;6.00;99.90
51841;DHT22;37888;53.246;6.658;2024-02-23T18:54:44;5.90;99.90
51841;DHT22;37888;53.246;6.658;2024-02-23T18:57:10;5.90;99.90
51841;DHT22;37888;53.246;6.658;2024-02-23T18:59:37;5.70;99.90
51841;DHT22;37888;53.246;6.658;2024-02-23T19:02:02;5.70;99.90
51841;DHT22;37888;53.246;6.658;2024-02-23T19:04:28;5.60;99.90
51841;DHT22;37888;53.246;6.658;2024-02-23T19:06:56;5.50;99.90
51841;DHT22;37888;53.246;6.658;2024-02-23T19:09:22;5.50;99.90
51841;DHT22;37888;53.246;6.658;2024-02-23T19:11:47;5.50;99.90
51841;DHT22;37888;53.246;6.658;2024-02-23T19:14:13;5.40;99.90
51841;DHT22;37888;53.246;6.658;2024-02-23T19:16:39;5.40;99.90
51841;DHT22;37888;53.246;6.658;2024-02-23T19:19:04;5.40;99.90
51841;DHT22;37888;53.246;6.658;2024-02-23T19:21:31;5.40;99.90
51841;DHT22;37888;53.246;6.658;2024-02-23T19:23:57;5.30;99.90
51841;DHT22;37888;53.246;6.658;2024-02-23T19:26:23;5.30;99.90
51841;DHT22;37888;53.246;6.658;2024-02-23T19:28:49;5.30;99.90
51841;DHT22;37888;53.246;6.658;2024-02-23T19:31:16;5.20;99.90
51841;DHT22;37888;53.246;6.658;2024-02-23T19:33:41;5.20;99.90
51841;DHT22;37888;53.246;6.658;2024-02-23T19:36:08;5.20;99.90
51841;DHT22;37888;53.246;6.658;2024-02-23T19:38:36;5.20;99.90
51841;DHT22;37888;53.246;6.658;2024-02-23T19:41:02;5.20;99.90
51841;DHT22;37888;53.246;6.658;2024-02-23T19:43:28;5.10;99.90
51841;DHT22;37888;53.246;6.658;2024-02-23T19:45:54;5.20;99.90
51841;DHT22;37888;53.246;6.658;2024-02-23T19:48:20;5.20;99.90
51841;DHT22;37888;53.246;6.658;2024-02-23T19:50:46;5.30;99.90
51841;DHT22;37888;53.246;6.658;2024-02-23T19:53:12;5.30;99.90
51841;DHT22;37888;53.246;6.658;2024-02-23T19:55:38;4.80;99.90
51841;DHT22;37888;53.246;6.658;2024-02-23T19:58:06;5.40;99.90
51841;DHT22;37888;53.246;6.658;2024-02-23T20:00:31;5.40;99.90
51841;DHT22;37888;53.246;6.658;2024-02-23T20:02:57;5.40;99.90
51841;DHT22;37888;53.246;6.658;2024-02-23T20:05:23;5.00;99.90
51841;DHT22;37888;53.246;6.658;2024-02-23T20:07:51;5.40;99.90
51841;DHT22;37888;53.246;6.658;2024-02-23T20:10:16;5.30;99.90
51841;DHT22;37888;53.246;6.658;2024-02-23T20:12:43;5.30;99.90
51841;DHT22;37888;53.246;6.658;2024-02-23T20:15:09;5.40;99.90
51841;DHT22;37888;53.246;6.658;2024-02-23T20:17:35;5.40;99.90
51841;DHT22;37888;53.246;6.658;2024-02-23T20:20:02;5.40;99.90
51841;DHT22;37888;53.246;6.658;2024-02-23T20:22:29;5.40;99.90
51841;DHT22;37888;53.246;6.658;2024-02-23T20:24:54;5.40;99.90
51841;DHT22;37888;53.246;6.658;2024-02-23T20:27:20;5.40;99.90
51841;DHT22;37888;53.246;6.658;2024-02-23T20:29:45;5.50;99.90
51841;DHT22;37888;53.246;6.658;2024-02-23T20:32:11;5.50;99.90
51841;DHT22;37888;53.246;6.658;2024-02-23T20:34:37;5.50;99.90
51841;DHT22;37888;53.246;6.658;2024-02-23T20:37:03;5.60;99.90
51841;DHT22;37888;53.246;6.658;2024-02-23T20:39:29;6.40;99.90
51841;DHT22;37888;53.246;6.658;2024-02-23T20:41:55;5.50;99.90
51841;DHT22;37888;53.246;6.658;2024-02-23T20:44:21;5.60;99.90
51841;DHT22;37888;53.246;6.658;2024-02-23T20:46:47;5.60;99.90
51841;DHT22;37888;53.246;6.658;2024-02-23T20:49:14;5.60;99.90
51841;DHT22;37888;53.246;6.658;2024-02-23T20:51:40;5.60;99.90
51841;DHT22;37888;53.246;6.658;2024-02-23T20:54:06;5.60;99.90
51841;DHT22;37888;53.246;6.658;2024-02-23T20:56:32;5.60;99.90
51841;DHT22;37888;53.246;6.658;2024-02-23T20:59:00;5.60;99.90
51841;DHT22;37888;53.246;6.658;2024-02-23T21:01:26;5.60;99.90
51841;DHT22;37888;53.246;6.658;2024-02-23T21:03:51;5.60;99.90
51841;DHT22;37888;53.246;6.658;2024-02-23T21:06:18;5.60;99.90
51841;DHT22;37888;53.246;6.658;2024-02-23T21:08:46;5.70;99.90
51841;DHT22;37888;53.246;6.658;2024-02-23T21:11:12;5.70;99.90
51841;DHT22;37888;53.246;6.658;2024-02-23T21:13:40;5.70;99.90
51841;DHT22;37888;53.246;6.658;2024-02-23T21:16:05;5.60;99.90
51841;DHT22;37888;53.246;6.658;2024-02-23T21:18:31;5.60;99.90
51841;DHT22;37888;53.246;6.658;2024-02-23T21:20:57;5.60;99.90
51841;DHT22;37888;53.246;6.658;2024-02-23T21:23:23;5.60;99.90
51841;DHT22;37888;53.246;6.658;2024-02-23T21:25:49;5.60;99.90
51841;DHT22;37888;53.246;6.658;2024-02-23T21:28:14;5.70;99.90
51841;DHT22;37888;53.246;6.658;2024-02-23T21:30:42;5.60;99.90
51841;DHT22;37888;53.246;6.658;2024-02-23T21:33:11;5.70;99.90
51841;DHT22;37888;53.246;6.658;2024-02-23T21:35:37;5.70;99.90
51841;DHT22;37888;53.246;6.658;2024-02-23T21:38:03;5.70;99.90
51841;DHT22;37888;53.246;6.658;2024-02-23T21:40:28;5.70;99.90
51841;DHT22;37888;53.246;6.658;2024-02-23T21:42:54;5.20;99.90
51841;DHT22;37888;53.246;6.658;2024-02-23T21:45:21;5.70;99.90
51841;DHT22;37888;53.246;6.658;2024-02-23T21:47:47;5.70;99.90
51841;DHT22;37888;53.246;6.658;2024-02-23T21:50:13;5.70;99.90
51841;DHT22;37888;53.246;6.658;2024-02-23T21:52:39;5.70;99.90
51841;DHT22;37888;53.246;6.658;2024-02-23T21:55:05;5.60;99.90
51841;DHT22;37888;53.246;6.658;2024-02-23T21:57:31;5.60;99.90
51841;DHT22;37888;53.246;6.658;2024-02-23T21:59:57;5.60;99.90
51841;DHT22;37888;53.246;6.658;2024-02-23T22:02:22;5.50;99.90
51841;DHT22;37888;53.246;6.658;2024-02-23T22:04:56;5.50;99.90
51841;DHT22;37888;53.246;6.658;2024-02-23T22:07:23;5.50;99.90